sensor_id;sensor_type;location;lat;lon;timestamp;pressure;altitude;pressure_sealevel;temperature
80422;BMP280;69763;50.182;9.144;2023-05-07T00:01:31;100025.00;;;14.06
80422;BMP280;69763;50.182;9.144;2023-05-07T00:03:56;100027.75;;;14.06
80422;BMP280;69763;50.182;9.144;2023-05-07T00:06:21;100026.28;;;14.05
80422;BMP280;69763;50.182;9.144;2023-05-07T00:08:47;100020.63;;;14.03
80422;BMP280;69763;50.182;9.144;2023-05-07T00:11:12;100022.44;;;14.01
80422;BMP280;69763;50.182;9.144;2023-05-07T00:13:37;100020.59;;;13.96
80422;BMP280;69763;50.182;9.144;2023-05-07T00:16:03;100016.75;;;13.91
80422;BMP280;69763;50.182;9.144;2023-05-07T00:18:30;100024.72;;;13.89
80422;BMP280;69763;50.182;9.144;2023-05-07T00:20:55;100023.09;;;13.86
80422;BMP280;69763;50.182;9.144;2023-05-07T00:23:21;100024.16;;;13.83
80422;BMP280;69763;50.182;9.144;2023-05-07T00:25:46;100019.22;;;13.81
80422;BMP280;69763;50.182;9.144;2023-05-07T00:28:12;100020.31;;;13.78
80422;BMP280;69763;50.182;9.144;2023-05-07T00:30:37;100022.84;;;13.76
80422;BMP280;69763;50.182;9.144;2023-05-07T00:33:02;100024.81;;;13.76
80422;BMP280;69763;50.182;9.144;2023-05-07T00:35:29;100019.94;;;13.74
80422;BMP280;69763;50.182;9.144;2023-05-07T00:37:54;100019.72;;;13.72
80422;BMP280;69763;50.182;9.144;2023-05-07T00:40:20;100009.34;;;13.71
80422;BMP280;69763;50.182;9.144;2023-05-07T00:42:45;100013.34;;;13.70
80422;BMP280;69763;50.182;9.144;2023-05-07T00:45:11;100013.16;;;13.68
80422;BMP280;69763;50.182;9.144;2023-05-07T00:47:36;100008.25;;;13.66
80422;BMP280;69763;50.182;9.144;2023-05-07T00:50:02;100004.06;;;13.65
80422;BMP280;69763;50.182;9.144;2023-05-07T00:52:29;99999.91;;;13.64
80422;BMP280;69763;50.182;9.144;2023-05-07T00:54:55;100004.59;;;13.64
80422;BMP280;69763;50.182;9.144;2023-05-07T00:57:21;100004.59;;;13.64
80422;BMP280;69763;50.182;9.144;2023-05-07T00:59:46;100007.13;;;13.62
80422;BMP280;69763;50.182;9.144;2023-05-07T01:02:12;99999.50;;;13.60
80422;BMP280;69763;50.182;9.144;2023-05-07T01:04:37;99996.25;;;13.62
80422;BMP280;69763;50.182;9.144;2023-05-07T01:07:03;100001.47;;;13.60
80422;BMP280;69763;50.182;9.144;2023-05-07T01:09:30;99993.31;;;13.60
80422;BMP280;69763;50.182;9.144;2023-05-07T01:11:57;99990.78;;;13.62
80422;BMP280;69763;50.182;9.144;2023-05-07T01:14:23;99994.97;;;13.63
80422;BMP280;69763;50.182;9.144;2023-05-07T01:16:48;99992.06;;;13.61
80422;BMP280;69763;50.182;9.144;2023-05-07T01:19:15;99991.53;;;13.62
80422;BMP280;69763;50.182;9.144;2023-05-07T01:21:45;99982.63;;;13.62
80422;BMP280;69763;50.182;9.144;2023-05-07T01:24:13;99988.81;;;13.62
80422;BMP280;69763;50.182;9.144;2023-05-07T01:26:40;99988.81;;;13.62
80422;BMP280;69763;50.182;9.144;2023-05-07T01:29:05;99985.34;;;13.62
80422;BMP280;69763;50.182;9.144;2023-05-07T01:31:32;99984.81;;;13.63
80422;BMP280;69763;50.182;9.144;2023-05-07T01:33:59;99986.81;;;13.63
80422;BMP280;69763;50.182;9.144;2023-05-07T01:36:25;99992.97;;;13.63
80422;BMP280;69763;50.182;9.144;2023-05-07T01:38:51;99992.25;;;13.63
80422;BMP280;69763;50.182;9.144;2023-05-07T01:41:18;99988.59;;;13.60
80422;BMP280;69763;50.182;9.144;2023-05-07T01:43:44;99986.94;;;13.57
80422;BMP280;69763;50.182;9.144;2023-05-07T01:46:10;99985.31;;;13.54
80422;BMP280;69763;50.182;9.144;2023-05-07T01:48:37;99983.31;;;13.55
80422;BMP280;69763;50.182;9.144;2023-05-07T01:51:03;99987.31;;;13.54
80422;BMP280;69763;50.182;9.144;2023-05-07T01:53:35;99988.59;;;13.53
80422;BMP280;69763;50.182;9.144;2023-05-07T01:56:00;99989.13;;;13.51
80422;BMP280;69763;50.182;9.144;2023-05-07T01:58:27;99997.06;;;13.49
80422;BMP280;69763;50.182;9.144;2023-05-07T02:00:52;99997.81;;;13.50
80422;BMP280;69763;50.182;9.144;2023-05-07T02:03:18;99998.16;;;13.46
80422;BMP280;69763;50.182;9.144;2023-05-07T02:05:43;99990.13;;;13.40
80422;BMP280;69763;50.182;9.144;2023-05-07T02:08:08;99998.63;;;13.37
80422;BMP280;69763;50.182;9.144;2023-05-07T02:10:34;99994.97;;;13.34
80422;BMP280;69763;50.182;9.144;2023-05-07T02:12:59;99990.59;;;13.31
80422;BMP280;69763;50.182;9.144;2023-05-07T02:15:26;99994.91;;;13.27
80422;BMP280;69763;50.182;9.144;2023-05-07T02:18:02;99992.31;;;13.21
80422;BMP280;69763;50.182;9.144;2023-05-07T02:20:28;99995.78;;;13.22
80422;BMP280;69763;50.182;9.144;2023-05-07T02:22:53;99993.78;;;13.22
80422;BMP280;69763;50.182;9.144;2023-05-07T02:25:19;99991.81;;;13.23
80422;BMP280;69763;50.182;9.144;2023-05-07T02:27:44;100002.91;;;13.25
80422;BMP280;69763;50.182;9.144;2023-05-07T02:30:10;100004.88;;;13.24
80422;BMP280;69763;50.182;9.144;2023-05-07T02:32:37;100002.47;;;13.21
80422;BMP280;69763;50.182;9.144;2023-05-07T02:35:03;100002.63;;;13.15
80422;BMP280;69763;50.182;9.144;2023-05-07T02:37:28;100007.53;;;13.17
80422;BMP280;69763;50.182;9.144;2023-05-07T02:39:54;100003.56;;;13.18
80422;BMP280;69763;50.182;9.144;2023-05-07T02:42:19;100003.56;;;13.18
80422;BMP280;69763;50.182;9.144;2023-05-07T02:44:44;100002.63;;;13.15
80422;BMP280;69763;50.182;9.144;2023-05-07T02:47:09;100005.69;;;13.12
80422;BMP280;69763;50.182;9.144;2023-05-07T02:49:36;100004.94;;;13.11
80422;BMP280;69763;50.182;9.144;2023-05-07T02:52:02;100006.41;;;13.12
80422;BMP280;69763;50.182;9.144;2023-05-07T02:54:27;100003.91;;;13.14
80422;BMP280;69763;50.182;9.144;2023-05-07T02:56:52;100008.41;;;13.12
80422;BMP280;69763;50.182;9.144;2023-05-07T02:59:18;100003.69;;;13.12
80422;BMP280;69763;50.182;9.144;2023-05-07T03:01:43;100004.94;;;13.11
80422;BMP280;69763;50.182;9.144;2023-05-07T03:04:08;100003.69;;;13.12
80422;BMP280;69763;50.182;9.144;2023-05-07T03:06:35;100004.81;;;13.17
80422;BMP280;69763;50.182;9.144;2023-05-07T03:09:00;100011.72;;;13.18
80422;BMP280;69763;50.182;9.144;2023-05-07T03:11:26;100002.47;;;13.21
80422;BMP280;69763;50.182;9.144;2023-05-07T03:13:51;99999.56;;;13.19
80422;BMP280;69763;50.182;9.144;2023-05-07T03:16:16;100000.50;;;13.21
80422;BMP280;69763;50.182;9.144;2023-05-07T03:18:42;99981.84;;;13.25
80422;BMP280;69763;50.182;9.144;2023-05-07T03:21:07;99998.91;;;13.26
80422;BMP280;69763;50.182;9.144;2023-05-07T03:23:34;99999.09;;;13.28
80422;BMP280;69763;50.182;9.144;2023-05-07T03:25:59;99991.88;;;13.30
80422;BMP280;69763;50.182;9.144;2023-05-07T03:28:24;99990.41;;;13.29
80422;BMP280;69763;50.182;9.144;2023-05-07T03:30:50;99990.41;;;13.29
80422;BMP280;69763;50.182;9.144;2023-05-07T03:33:15;99987.69;;;13.29
80422;BMP280;69763;50.182;9.144;2023-05-07T03:35:41;99997.31;;;13.30
80422;BMP280;69763;50.182;9.144;2023-05-07T03:38:06;100000.03;;;13.30
80422;BMP280;69763;50.182;9.144;2023-05-07T03:40:33;99993.31;;;13.31
80422;BMP280;69763;50.182;9.144;2023-05-07T03:42:59;99992.25;;;13.34
80422;BMP280;69763;50.182;9.144;2023-05-07T03:45:25;99986.47;;;13.38
80422;BMP280;69763;50.182;9.144;2023-05-07T03:47:50;99983.22;;;13.39
80422;BMP280;69763;50.182;9.144;2023-05-07T03:50:16;99982.50;;;13.39
80422;BMP280;69763;50.182;9.144;2023-05-07T03:52:41;99993.38;;;13.39
80422;BMP280;69763;50.182;9.144;2023-05-07T03:55:07;99995.38;;;13.38
80422;BMP280;69763;50.182;9.144;2023-05-07T03:57:34;99998.81;;;13.39
80422;BMP280;69763;50.182;9.144;2023-05-07T03:59:59;99989.19;;;13.38
80422;BMP280;69763;50.182;9.144;2023-05-07T04:02:24;99996.63;;;13.37
80422;BMP280;69763;50.182;9.144;2023-05-07T04:04:50;99993.16;;;13.37
80422;BMP280;69763;50.182;9.144;2023-05-07T04:07:15;99998.63;;;13.37
80422;BMP280;69763;50.182;9.144;2023-05-07T04:09:40;99993.16;;;13.37
80422;BMP280;69763;50.182;9.144;2023-05-07T04:12:06;99983.75;;;13.38
80422;BMP280;69763;50.182;9.144;2023-05-07T04:14:33;99985.94;;;13.39
80422;BMP280;69763;50.182;9.144;2023-05-07T04:16:58;99989.59;;;13.42
80422;BMP280;69763;50.182;9.144;2023-05-07T04:19:23;99985.59;;;13.43
80422;BMP280;69763;50.182;9.144;2023-05-07T04:21:49;99983.06;;;13.45
80422;BMP280;69763;50.182;9.144;2023-05-07T04:24:14;99992.72;;;13.46
80422;BMP280;69763;50.182;9.144;2023-05-07T04:26:39;99981.47;;;13.50
80422;BMP280;69763;50.182;9.144;2023-05-07T04:29:05;99983.88;;;13.53
80422;BMP280;69763;50.182;9.144;2023-05-07T04:31:31;99994.59;;;13.59
80422;BMP280;69763;50.182;9.144;2023-05-07T04:33:57;100005.13;;;13.62
80422;BMP280;69763;50.182;9.144;2023-05-07T04:36:22;100003.31;;;13.65
80422;BMP280;69763;50.182;9.144;2023-05-07T04:38:47;100007.72;;;13.68
80422;BMP280;69763;50.182;9.144;2023-05-07T04:41:13;100005.16;;;13.70
80422;BMP280;69763;50.182;9.144;2023-05-07T04:43:38;100010.09;;;13.71
80422;BMP280;69763;50.182;9.144;2023-05-07T04:46:04;100011.94;;;13.76
80422;BMP280;69763;50.182;9.144;2023-05-07T04:48:30;100012.53;;;13.82
80422;BMP280;69763;50.182;9.144;2023-05-07T04:50:56;100008.53;;;13.83
80422;BMP280;69763;50.182;9.144;2023-05-07T04:53:21;100012.53;;;13.82
80422;BMP280;69763;50.182;9.144;2023-05-07T04:55:46;100021.22;;;13.81
80422;BMP280;69763;50.182;9.144;2023-05-07T04:58:12;100021.78;;;13.79
80422;BMP280;69763;50.182;9.144;2023-05-07T05:00:37;100029.94;;;13.79
80422;BMP280;69763;50.182;9.144;2023-05-07T05:03:03;100029.94;;;13.79
80422;BMP280;69763;50.182;9.144;2023-05-07T05:05:29;100032.84;;;13.81
80422;BMP280;69763;50.182;9.144;2023-05-07T05:07:55;100030.13;;;13.81
80422;BMP280;69763;50.182;9.144;2023-05-07T05:10:21;100039.78;;;13.82
80422;BMP280;69763;50.182;9.144;2023-05-07T05:12:46;100033.78;;;13.84
80422;BMP280;69763;50.182;9.144;2023-05-07T05:15:12;100034.00;;;13.86
80422;BMP280;69763;50.182;9.144;2023-05-07T05:17:37;100038.88;;;13.88
80422;BMP280;69763;50.182;9.144;2023-05-07T05:20:04;100035.63;;;13.89
80422;BMP280;69763;50.182;9.144;2023-05-07T05:22:31;100037.81;;;13.91
80422;BMP280;69763;50.182;9.144;2023-05-07T05:24:56;100038.00;;;13.93
80422;BMP280;69763;50.182;9.144;2023-05-07T05:27:21;100044.91;;;13.94
80422;BMP280;69763;50.182;9.144;2023-05-07T05:29:47;100036.22;;;13.95
80422;BMP280;69763;50.182;9.144;2023-05-07T05:32:12;100036.59;;;13.99
80422;BMP280;69763;50.182;9.144;2023-05-07T05:34:37;100037.72;;;14.04
80422;BMP280;69763;50.182;9.144;2023-05-07T05:37:03;100043.56;;;14.08
80422;BMP280;69763;50.182;9.144;2023-05-07T05:39:29;100056.06;;;14.11
80422;BMP280;69763;50.182;9.144;2023-05-07T05:41:55;100058.84;;;14.18
80422;BMP280;69763;50.182;9.144;2023-05-07T05:44:20;100062.88;;;14.25
80422;BMP280;69763;50.182;9.144;2023-05-07T05:46:46;100066.16;;;14.31
80422;BMP280;69763;50.182;9.144;2023-05-07T05:49:11;100069.47;;;14.37
80422;BMP280;69763;50.182;9.144;2023-05-07T05:51:36;100065.66;;;14.40
80422;BMP280;69763;50.182;9.144;2023-05-07T05:54:02;100073.16;;;14.47
80422;BMP280;69763;50.182;9.144;2023-05-07T05:56:28;100072.47;;;14.54
80422;BMP280;69763;50.182;9.144;2023-05-07T05:58:54;100069.56;;;14.60
80422;BMP280;69763;50.182;9.144;2023-05-07T06:01:19;100085.56;;;14.71
80422;BMP280;69763;50.182;9.144;2023-05-07T06:03:45;100077.94;;;14.77
80422;BMP280;69763;50.182;9.144;2023-05-07T06:06:10;100080.50;;;14.83
80422;BMP280;69763;50.182;9.144;2023-05-07T06:08:35;100074.34;;;14.90
80422;BMP280;69763;50.182;9.144;2023-05-07T06:11:01;100071.28;;;15.01
80422;BMP280;69763;50.182;9.144;2023-05-07T06:13:28;100082.91;;;15.16
80422;BMP280;69763;50.182;9.144;2023-05-07T06:15:53;100074.34;;;15.28
80422;BMP280;69763;50.182;9.144;2023-05-07T06:18:19;100076.53;;;15.37
80422;BMP280;69763;50.182;9.144;2023-05-07T06:20:44;100079.47;;;15.39
80422;BMP280;69763;50.182;9.144;2023-05-07T06:23:09;100080.91;;;15.47
80422;BMP280;69763;50.182;9.144;2023-05-07T06:25:35;100086.72;;;15.51
80422;BMP280;69763;50.182;9.144;2023-05-07T06:28:00;100080.34;;;15.56
80422;BMP280;69763;50.182;9.144;2023-05-07T06:30:27;100082.16;;;15.69
80422;BMP280;69763;50.182;9.144;2023-05-07T06:32:52;100086.50;;;15.80
80422;BMP280;69763;50.182;9.144;2023-05-07T06:35:18;100083.75;;;15.87
80422;BMP280;69763;50.182;9.144;2023-05-07T06:37:44;100081.88;;;16.13
80422;BMP280;69763;50.182;9.144;2023-05-07T06:40:10;100082.88;;;16.25
80422;BMP280;69763;50.182;9.144;2023-05-07T06:42:36;100089.41;;;16.37
80422;BMP280;69763;50.182;9.144;2023-05-07T06:45:01;100095.72;;;16.54
80422;BMP280;69763;50.182;9.144;2023-05-07T06:47:28;100090.19;;;16.62
80422;BMP280;69763;50.182;9.144;2023-05-07T06:49:53;100094.88;;;16.69
80422;BMP280;69763;50.182;9.144;2023-05-07T06:52:18;100090.94;;;16.87
80422;BMP280;69763;50.182;9.144;2023-05-07T06:54:44;100089.44;;;16.94
80422;BMP280;69763;50.182;9.144;2023-05-07T06:57:09;100096.84;;;17.26
80422;BMP280;69763;50.182;9.144;2023-05-07T06:59:34;100094.19;;;17.35
80422;BMP280;69763;50.182;9.144;2023-05-07T07:02:00;100094.13;;;17.43
80422;BMP280;69763;50.182;9.144;2023-05-07T07:04:26;100102.34;;;17.43
80422;BMP280;69763;50.182;9.144;2023-05-07T07:06:53;100099.78;;;17.45
80422;BMP280;69763;50.182;9.144;2023-05-07T07:09:18;100096.94;;;17.35
80422;BMP280;69763;50.182;9.144;2023-05-07T07:11:44;100097.31;;;17.57
80422;BMP280;69763;50.182;9.144;2023-05-07T07:14:09;100108.09;;;17.72
80422;BMP280;69763;50.182;9.144;2023-05-07T07:16:34;100097.38;;;17.49
80422;BMP280;69763;50.182;9.144;2023-05-07T07:19:00;100105.09;;;17.43
80422;BMP280;69763;50.182;9.144;2023-05-07T07:21:26;100095.63;;;17.61
80422;BMP280;69763;50.182;9.144;2023-05-07T07:23:52;100102.69;;;17.81
80422;BMP280;69763;50.182;9.144;2023-05-07T07:26:17;100106.72;;;18.15
80422;BMP280;69763;50.182;9.144;2023-05-07T07:28:43;100107.56;;;18.61
80422;BMP280;69763;50.182;9.144;2023-05-07T07:31:08;100105.00;;;19.28
80422;BMP280;69763;50.182;9.144;2023-05-07T07:33:34;100107.22;;;19.68
80422;BMP280;69763;50.182;9.144;2023-05-07T07:35:59;100103.53;;;20.23
80422;BMP280;69763;50.182;9.144;2023-05-07T07:38:26;100112.34;;;20.93
80422;BMP280;69763;50.182;9.144;2023-05-07T07:40:51;100103.09;;;20.88
80422;BMP280;69763;50.182;9.144;2023-05-07T07:43:16;100104.44;;;20.47
80422;BMP280;69763;50.182;9.144;2023-05-07T07:45:42;100104.03;;;20.41
80422;BMP280;69763;50.182;9.144;2023-05-07T07:48:07;100103.69;;;20.56
80422;BMP280;69763;50.182;9.144;2023-05-07T07:50:32;100111.25;;;20.56
80422;BMP280;69763;50.182;9.144;2023-05-07T07:52:58;100109.63;;;20.22
80422;BMP280;69763;50.182;9.144;2023-05-07T07:55:24;100113.97;;;20.15
80422;BMP280;69763;50.182;9.144;2023-05-07T07:57:50;100120.78;;;20.05
80422;BMP280;69763;50.182;9.144;2023-05-07T08:00:16;100110.22;;;20.01
80422;BMP280;69763;50.182;9.144;2023-05-07T08:02:41;100107.38;;;19.70
80422;BMP280;69763;50.182;9.144;2023-05-07T08:05:07;100111.84;;;19.66
80422;BMP280;69763;50.182;9.144;2023-05-07T08:07:33;100108.63;;;19.88
80422;BMP280;69763;50.182;9.144;2023-05-07T08:09:58;100114.19;;;20.38
80422;BMP280;69763;50.182;9.144;2023-05-07T08:12:25;100112.34;;;21.35
80422;BMP280;69763;50.182;9.144;2023-05-07T08:14:50;100105.78;;;22.76
80422;BMP280;69763;50.182;9.144;2023-05-07T08:17:15;100105.66;;;22.85
80422;BMP280;69763;50.182;9.144;2023-05-07T08:19:41;100106.03;;;22.68
80422;BMP280;69763;50.182;9.144;2023-05-07T08:22:06;100113.75;;;22.35
80422;BMP280;69763;50.182;9.144;2023-05-07T08:24:32;100110.16;;;22.32
80422;BMP280;69763;50.182;9.144;2023-05-07T08:26:57;100111.06;;;22.72
80422;BMP280;69763;50.182;9.144;2023-05-07T08:29:24;100113.94;;;23.34
80422;BMP280;69763;50.182;9.144;2023-05-07T08:31:49;100108.47;;;24.39
80422;BMP280;69763;50.182;9.144;2023-05-07T08:34:14;100107.16;;;25.39
80422;BMP280;69763;50.182;9.144;2023-05-07T08:36:40;100102.34;;;26.02
80422;BMP280;69763;50.182;9.144;2023-05-07T08:39:05;100105.09;;;26.18
80422;BMP280;69763;50.182;9.144;2023-05-07T08:41:31;100108.75;;;26.38
80422;BMP280;69763;50.182;9.144;2023-05-07T08:43:58;100105.06;;;26.49
80422;BMP280;69763;50.182;9.144;2023-05-07T08:46:25;100106.13;;;26.75
80422;BMP280;69763;50.182;9.144;2023-05-07T08:48:51;100110.50;;;26.80
80422;BMP280;69763;50.182;9.144;2023-05-07T08:51:18;100105.44;;;26.42
80422;BMP280;69763;50.182;9.144;2023-05-07T08:53:44;100110.22;;;25.61
80422;BMP280;69763;50.182;9.144;2023-05-07T08:56:10;100104.88;;;25.36
80422;BMP280;69763;50.182;9.144;2023-05-07T08:58:35;100110.91;;;25.17
80422;BMP280;69763;50.182;9.144;2023-05-07T09:01:03;100106.19;;;24.76
80422;BMP280;69763;50.182;9.144;2023-05-07T09:03:31;100108.22;;;24.48
80422;BMP280;69763;50.182;9.144;2023-05-07T09:05:57;100100.53;;;24.74
80422;BMP280;69763;50.182;9.144;2023-05-07T09:08:24;100100.53;;;25.17
80422;BMP280;69763;50.182;9.144;2023-05-07T09:10:51;100099.28;;;25.20
80422;BMP280;69763;50.182;9.144;2023-05-07T09:13:17;100105.53;;;24.91
80422;BMP280;69763;50.182;9.144;2023-05-07T09:15:42;100105.25;;;24.85
80422;BMP280;69763;50.182;9.144;2023-05-07T09:18:07;100096.25;;;24.57
80422;BMP280;69763;50.182;9.144;2023-05-07T09:20:36;100101.69;;;24.42
80422;BMP280;69763;50.182;9.144;2023-05-07T09:23:01;100086.63;;;24.31
80422;BMP280;69763;50.182;9.144;2023-05-07T09:25:31;100088.94;;;23.96
80422;BMP280;69763;50.182;9.144;2023-05-07T09:27:57;100085.75;;;23.88
80422;BMP280;69763;50.182;9.144;2023-05-07T09:30:22;100081.03;;;24.04
80422;BMP280;69763;50.182;9.144;2023-05-07T09:32:47;100084.06;;;24.35
80422;BMP280;69763;50.182;9.144;2023-05-07T09:35:15;100088.25;;;24.36
80422;BMP280;69763;50.182;9.144;2023-05-07T09:37:41;100092.06;;;24.43
80422;BMP280;69763;50.182;9.144;2023-05-07T09:40:08;100090.81;;;24.19
80422;BMP280;69763;50.182;9.144;2023-05-07T09:42:44;100079.94;;;24.09
80422;BMP280;69763;50.182;9.144;2023-05-07T09:45:10;100084.06;;;24.22
80422;BMP280;69763;50.182;9.144;2023-05-07T09:47:35;100087.00;;;24.26
80422;BMP280;69763;50.182;9.144;2023-05-07T09:50:04;100084.63;;;24.75
80422;BMP280;69763;50.182;9.144;2023-05-07T09:52:30;100085.41;;;24.91
80422;BMP280;69763;50.182;9.144;2023-05-07T09:54:58;100079.69;;;24.87
80422;BMP280;69763;50.182;9.144;2023-05-07T09:57:25;100079.72;;;25.32
80422;BMP280;69763;50.182;9.144;2023-05-07T09:59:52;100085.38;;;25.34
80422;BMP280;69763;50.182;9.144;2023-05-07T10:02:19;100086.22;;;25.23
80422;BMP280;69763;50.182;9.144;2023-05-07T10:04:44;100075.44;;;24.99
80422;BMP280;69763;50.182;9.144;2023-05-07T10:07:10;100076.81;;;25.14
80422;BMP280;69763;50.182;9.144;2023-05-07T10:09:35;100073.75;;;24.79
80422;BMP280;69763;50.182;9.144;2023-05-07T10:12:02;100072.09;;;25.03
80422;BMP280;69763;50.182;9.144;2023-05-07T10:14:28;100073.47;;;25.02
80422;BMP280;69763;50.182;9.144;2023-05-07T10:16:54;100071.00;;;25.37
80422;BMP280;69763;50.182;9.144;2023-05-07T10:19:20;100074.38;;;25.36
80422;BMP280;69763;50.182;9.144;2023-05-07T10:21:50;100066.63;;;24.89
80422;BMP280;69763;50.182;9.144;2023-05-07T10:24:19;100074.78;;;24.72
80422;BMP280;69763;50.182;9.144;2023-05-07T10:26:47;100063.59;;;24.70
80422;BMP280;69763;50.182;9.144;2023-05-07T10:29:21;100058.59;;;24.95
80422;BMP280;69763;50.182;9.144;2023-05-07T10:31:55;100059.97;;;24.81
80422;BMP280;69763;50.182;9.144;2023-05-07T10:34:26;100062.56;;;24.77
80422;BMP280;69763;50.182;9.144;2023-05-07T10:36:54;100062.28;;;24.43
80422;BMP280;69763;50.182;9.144;2023-05-07T10:39:20;100066.50;;;24.44
80422;BMP280;69763;50.182;9.144;2023-05-07T10:41:46;100070.72;;;24.32
80422;BMP280;69763;50.182;9.144;2023-05-07T10:44:11;100057.38;;;24.42
80422;BMP280;69763;50.182;9.144;2023-05-07T10:46:38;100063.00;;;24.44
80422;BMP280;69763;50.182;9.144;2023-05-07T10:49:07;100053.69;;;24.37
80422;BMP280;69763;50.182;9.144;2023-05-07T10:51:33;100053.44;;;24.06
80422;BMP280;69763;50.182;9.144;2023-05-07T10:54:21;100053.63;;;23.83
80422;BMP280;69763;50.182;9.144;2023-05-07T10:56:47;100056.22;;;23.92
80422;BMP280;69763;50.182;9.144;2023-05-07T10:59:32;100056.41;;;23.96
80422;BMP280;69763;50.182;9.144;2023-05-07T11:02:00;100052.25;;;24.09
80422;BMP280;69763;50.182;9.144;2023-05-07T11:04:25;100060.44;;;24.21
80422;BMP280;69763;50.182;9.144;2023-05-07T11:07:24;100057.19;;;24.38
80422;BMP280;69763;50.182;9.144;2023-05-07T11:09:57;100061.13;;;24.48
80422;BMP280;69763;50.182;9.144;2023-05-07T11:12:47;100060.69;;;24.68
80422;BMP280;69763;50.182;9.144;2023-05-07T11:15:13;100047.06;;;24.58
80422;BMP280;69763;50.182;9.144;2023-05-07T11:17:54;100051.56;;;24.65
80422;BMP280;69763;50.182;9.144;2023-05-07T11:20:20;100062.78;;;24.53
80422;BMP280;69763;50.182;9.144;2023-05-07T11:22:45;100049.59;;;24.38
80422;BMP280;69763;50.182;9.144;2023-05-07T11:25:10;100047.72;;;24.29
80422;BMP280;69763;50.182;9.144;2023-05-07T11:27:42;100044.94;;;24.29
80422;BMP280;69763;50.182;9.144;2023-05-07T11:30:09;100043.50;;;24.42
80422;BMP280;69763;50.182;9.144;2023-05-07T11:32:34;100045.63;;;24.71
80422;BMP280;69763;50.182;9.144;2023-05-07T11:35:01;100055.06;;;24.79
80422;BMP280;69763;50.182;9.144;2023-05-07T11:37:27;100051.06;;;24.69
80422;BMP280;69763;50.182;9.144;2023-05-07T11:40:01;100046.53;;;24.62
80422;BMP280;69763;50.182;9.144;2023-05-07T11:42:28;100048.72;;;24.49
80422;BMP280;69763;50.182;9.144;2023-05-07T11:44:53;100046.91;;;24.40
80422;BMP280;69763;50.182;9.144;2023-05-07T11:47:19;100054.00;;;24.30
80422;BMP280;69763;50.182;9.144;2023-05-07T11:49:46;100040.03;;;24.28
80422;BMP280;69763;50.182;9.144;2023-05-07T11:52:13;100036.03;;;24.31
80422;BMP280;69763;50.182;9.144;2023-05-07T11:54:39;100038.81;;;24.31
80422;BMP280;69763;50.182;9.144;2023-05-07T11:57:04;100035.81;;;24.27
80422;BMP280;69763;50.182;9.144;2023-05-07T11:59:30;100039.94;;;24.39
80422;BMP280;69763;50.182;9.144;2023-05-07T12:01:56;100036.75;;;24.88
80422;BMP280;69763;50.182;9.144;2023-05-07T12:04:22;100027.72;;;25.48
80422;BMP280;69763;50.182;9.144;2023-05-07T12:06:47;100031.69;;;25.90
80422;BMP280;69763;50.182;9.144;2023-05-07T12:09:14;100020.59;;;26.23
80422;BMP280;69763;50.182;9.144;2023-05-07T12:11:39;100025.03;;;26.30
80422;BMP280;69763;50.182;9.144;2023-05-07T12:14:05;100019.31;;;26.26
80422;BMP280;69763;50.182;9.144;2023-05-07T12:16:30;100026.66;;;26.35
80422;BMP280;69763;50.182;9.144;2023-05-07T12:18:56;100022.44;;;26.34
80422;BMP280;69763;50.182;9.144;2023-05-07T12:21:21;100012.63;;;26.49
80422;BMP280;69763;50.182;9.144;2023-05-07T12:23:47;100017.94;;;26.78
80422;BMP280;69763;50.182;9.144;2023-05-07T12:26:14;100018.16;;;26.66
80422;BMP280;69763;50.182;9.144;2023-05-07T12:28:39;100019.13;;;26.73
80422;BMP280;69763;50.182;9.144;2023-05-07T12:31:05;100016.34;;;26.91
80422;BMP280;69763;50.182;9.144;2023-05-07T12:33:31;100008.72;;;26.73
80422;BMP280;69763;50.182;9.144;2023-05-07T12:35:56;100014.91;;;26.54
80422;BMP280;69763;50.182;9.144;2023-05-07T12:38:22;100010.56;;;26.16
80422;BMP280;69763;50.182;9.144;2023-05-07T12:40:48;100006.31;;;25.97
80422;BMP280;69763;50.182;9.144;2023-05-07T12:43:20;100024.97;;;25.79
80422;BMP280;69763;50.182;9.144;2023-05-07T12:45:47;100024.09;;;25.75
80422;BMP280;69763;50.182;9.144;2023-05-07T12:48:13;100014.50;;;25.78
80422;BMP280;69763;50.182;9.144;2023-05-07T12:50:39;100001.22;;;26.25
80422;BMP280;69763;50.182;9.144;2023-05-07T12:53:05;100012.47;;;26.62
80422;BMP280;69763;50.182;9.144;2023-05-07T12:55:31;100021.00;;;26.33
80422;BMP280;69763;50.182;9.144;2023-05-07T12:57:56;100017.34;;;26.28
80422;BMP280;69763;50.182;9.144;2023-05-07T13:00:38;100013.84;;;26.28
80422;BMP280;69763;50.182;9.144;2023-05-07T13:03:03;100006.41;;;26.50
80422;BMP280;69763;50.182;9.144;2023-05-07T13:05:29;100010.31;;;26.61
80422;BMP280;69763;50.182;9.144;2023-05-07T13:07:55;100011.09;;;26.46
80422;BMP280;69763;50.182;9.144;2023-05-07T13:10:21;100010.56;;;26.16
80422;BMP280;69763;50.182;9.144;2023-05-07T13:12:47;100008.59;;;26.03
80422;BMP280;69763;50.182;9.144;2023-05-07T13:15:12;100006.78;;;25.76
80422;BMP280;69763;50.182;9.144;2023-05-07T13:17:39;100008.03;;;25.89
80422;BMP280;69763;50.182;9.144;2023-05-07T13:20:05;100000.97;;;25.86
80422;BMP280;69763;50.182;9.144;2023-05-07T13:22:31;100003.41;;;25.62
80422;BMP280;69763;50.182;9.144;2023-05-07T13:24:56;100004.28;;;25.51
80422;BMP280;69763;50.182;9.144;2023-05-07T13:27:22;100005.19;;;25.40
80422;BMP280;69763;50.182;9.144;2023-05-07T13:29:47;100000.69;;;25.48
80422;BMP280;69763;50.182;9.144;2023-05-07T13:32:12;100003.22;;;25.42
80422;BMP280;69763;50.182;9.144;2023-05-07T13:34:39;99994.44;;;25.48
80422;BMP280;69763;50.182;9.144;2023-05-07T13:37:04;99996.75;;;25.22
80422;BMP280;69763;50.182;9.144;2023-05-07T13:39:30;99996.19;;;25.10
80422;BMP280;69763;50.182;9.144;2023-05-07T13:41:55;99989.59;;;25.33
80422;BMP280;69763;50.182;9.144;2023-05-07T13:44:20;99987.72;;;25.53
80422;BMP280;69763;50.182;9.144;2023-05-07T13:46:46;99980.38;;;25.75
80422;BMP280;69763;50.182;9.144;2023-05-07T13:49:11;99983.97;;;25.62
80422;BMP280;69763;50.182;9.144;2023-05-07T13:51:38;99989.53;;;25.62
80422;BMP280;69763;50.182;9.144;2023-05-07T13:54:03;99993.09;;;25.64